Time;durP1;ratioP1;P1;durP2;ratioP2;P2;SDS_P1;SDS_P2;PMS_P1;PMS_P2;Temp;Humidity;BMP_temperature;BMP_pressure;BME280_temperature;BME280_humidity;BME280_pressure;Samples;Min_cycle;Max_cycle;Signal;HPM_P1;HPM_P2
2023/03/24 00:30:24;;;;;;;10.77;2.78;;;;;;;6.77;100.00;99888.94;6174486;22;20724;-71
2023/03/24 00:32:51;;;;;;;6.85;2.53;;;;;;;6.83;100.00;99896.31;6208677;23;20406;-71
2023/03/24 00:35:18;;;;;;;6.38;2.55;;;;;;;6.81;100.00;99885.84;6208654;23;20017;-72
2023/03/24 00:37:45;;;;;;;4.70;2.60;;;;;;;6.80;100.00;99877.97;6167454;23;20025;-72
2023/03/24 00:40:15;;;;;;;6.00;2.85;;;;;;;6.76;100.00;99874.78;6206264;23;20322;-73
2023/03/24 00:42:44;;;;;;;8.85;2.80;;;;;;;6.71;100.00;99877.94;6208795;23;20035;-72
2023/03/24 00:45:18;;;;;;;5.18;3.35;;;;;;;6.83;100.00;99875.00;6208301;23;20033;-72
2023/03/24 00:47:48;;;;;;;7.60;2.72;;;;;;;6.86;100.00;99866.69;6207833;23;20021;-72
2023/03/24 00:50:19;;;;;;;4.53;2.33;;;;;;;6.75;100.00;99867.78;6206113;23;20047;-72
2023/03/24 00:52:47;;;;;;;4.28;2.58;;;;;;;6.83;100.00;99873.16;6207413;23;20419;-72
2023/03/24 00:55:15;;;;;;;4.47;2.38;;;;;;;6.83;100.00;99864.34;6208935;23;20020;-71
2023/03/24 00:57:49;;;;;;;3.97;2.47;;;;;;;6.83;100.00;99864.34;6210585;23;20035;-72
2023/03/24 01:00:22;;;;;;;3.63;2.33;;;;;;;6.91;100.00;99853.72;6210084;23;20032;-72
2023/03/24 01:02:52;;;;;;;4.70;2.13;;;;;;;6.91;100.00;99840.38;6208390;23;20051;-72
2023/03/24 01:05:27;;;;;;;6.53;2.80;;;;;;;6.93;100.00;99854.41;6211525;23;20024;-72
2023/03/24 01:08:02;;;;;;;9.88;2.55;;;;;;;7.01;100.00;99846.44;6209150;23;20020;-71
2023/03/24 01:10:32;;;;;;;4.25;2.40;;;;;;;6.96;100.00;99840.75;6211725;23;20028;-71
2023/03/24 01:12:59;;;;;;;6.40;2.38;;;;;;;7.01;100.00;99833.09;6209125;23;20021;-71
2023/03/24 01:15:32;;;;;;;5.05;2.20;;;;;;;7.03;100.00;99827.63;6210586;23;20024;-71
2023/03/24 01:18:02;;;;;;;5.80;2.30;;;;;;;6.98;100.00;99824.59;6206737;23;20353;-71
2023/03/24 01:20:32;;;;;;;5.40;1.90;;;;;;;7.06;100.00;99822.81;6209618;23;20076;-72
2023/03/24 01:23:00;;;;;;;3.42;2.15;;;;;;;7.10;100.00;99815.31;6209241;23;20389;-72
2023/03/24 01:25:27;;;;;;;3.90;2.25;;;;;;;7.04;100.00;99807.94;6210008;23;20023;-71
2023/03/24 01:27:53;;;;;;;4.03;2.42;;;;;;;7.08;100.00;99815.47;6209904;23;20013;-71
2023/03/24 01:30:25;;;;;;;4.60;2.00;;;;;;;7.10;100.00;99810.81;6211611;23;20349;-72
2023/03/24 01:32:52;;;;;;;6.10;2.40;;;;;;;7.03;100.00;99800.97;6210966;23;20674;-72
2023/03/24 01:35:20;;;;;;;5.60;2.47;;;;;;;7.13;100.00;99794.50;6212286;23;20036;-72
2023/03/24 01:37:48;;;;;;;3.92;2.53;;;;;;;7.14;100.00;99790.00;6209931;23;20100;-71
2023/03/24 01:40:23;;;;;;;6.13;2.47;;;;;;;7.08;100.00;99793.28;6210598;23;20063;-72
2023/03/24 01:42:50;;;;;;;3.67;2.03;;;;;;;6.88;100.00;99766.91;6212795;23;20470;-72
2023/03/24 01:46:11;;;;;;;6.60;2.40;;;;;;;6.91;100.00;99758.59;6211433;23;20017;-71
2023/03/24 01:48:41;;;;;;;4.32;2.28;;;;;;;6.94;100.00;99766.25;6061595;23;20074;-72
2023/03/24 01:51:11;;;;;;;2.72;2.13;;;;;;;6.91;100.00;99771.06;6061426;23;20037;-72
2023/03/24 01:53:43;;;;;;;5.80;2.42;;;;;;;6.82;100.00;99772.03;6062238;23;20023;-72
2023/03/24 01:56:12;;;;;;;4.43;2.28;;;;;;;6.89;100.00;99765.06;6060721;23;20337;-71
2023/03/24 01:58:44;;;;;;;6.85;2.40;;;;;;;6.90;100.00;99762.22;6062130;23;20034;-72
2023/03/24 02:01:11;;;;;;;4.03;2.17;;;;;;;6.87;100.00;99754.53;6051559;23;20027;-71
2023/03/24 02:03:40;;;;;;;4.93;2.72;;;;;;;6.89;100.00;99757.06;6061991;23;20051;-71
2023/03/24 02:09:53;;;;;;;6.30;2.42;;;;;;;6.78;100.00;99738.69;6061412;23;20392;-72
2023/03/24 02:12:20;;;;;;;3.30;2.30;;;;;;;6.66;100.00;99733.63;6062971;23;20378;-71
2023/03/24 02:14:48;;;;;;;5.45;2.58;;;;;;;6.66;100.00;99730.94;6062329;23;20041;-72
2023/03/24 02:17:24;;;;;;;4.60;2.72;;;;;;;6.66;100.00;99736.28;6038329;23;20467;-72
2023/03/24 02:20:15;;;;;;;5.93;2.35;;;;;;;6.65;100.00;99721.28;6060456;23;20022;-72
2023/03/24 02:23:02;;;;;;;3.30;2.38;;;;;;;6.70;100.00;99715.47;6151602;23;20365;-72
2023/03/24 02:25:47;;;;;;;3.78;2.17;;;;;;;6.71;100.00;99718.00;6210730;23;20023;-72
2023/03/24 02:28:35;;;;;;;6.88;2.58;;;;;;;6.72;100.00;99697.50;6210921;23;20056;-72
2023/03/24 02:31:18;;;;;;;3.53;2.30;;;;;;;6.71;100.00;99711.84;6223593;23;20016;-72
2023/03/24 02:34:24;;;;;;;5.95;2.80;;;;;;;6.71;100.00;99702.00;6242533;23;20452;-71
2023/03/24 02:37:09;;;;;;;5.95;2.40;;;;;;;6.73;100.00;99699.16;6242493;23;20333;-73
2023/03/24 02:40:07;;;;;;;3.80;2.40;;;;;;;6.76;100.00;99700.69;6240729;23;20027;-73
2023/03/24 02:42:46;;;;;;;4.65;2.15;;;;;;;6.79;100.00;99703.88;6239616;23;20024;-73
2023/03/24 02:45:28;;;;;;;5.85;2.08;;;;;;;6.87;100.00;99708.38;6241737;23;20532;-72
2023/03/24 02:48:09;;;;;;;3.22;2.03;;;;;;;6.84;100.00;99706.03;6241766;23;20017;-71
2023/03/24 02:51:02;;;;;;;5.38;2.00;;;;;;;6.83;100.00;99707.88;6214475;23;20453;-71
2023/03/24 02:53:38;;;;;;;5.10;2.30;;;;;;;6.96;100.00;99699.44;6240316;23;20335;-72
2023/03/24 02:56:08;;;;;;;5.35;2.65;;;;;;;6.78;100.00;99698.72;6241160;23;20043;-72
2023/03/24 02:58:48;;;;;;;3.40;2.17;;;;;;;6.71;100.00;99687.84;6240709;23;20020;-72
2023/03/24 03:01:30;;;;;;;3.38;2.22;;;;;;;6.69;100.00;99689.81;6201204;23;20111;-72
2023/03/24 03:04:01;;;;;;;4.35;2.35;;;;;;;6.76;100.00;99682.84;6240303;23;20019;-72
2023/03/24 03:06:33;;;;;;;5.22;2.45;;;;;;;6.69;100.00;99676.50;6240424;23;20070;-72
2023/03/24 03:09:06;;;;;;;4.97;2.45;;;;;;;6.69;100.00;99665.84;6238628;23;20345;-72
2023/03/24 03:11:33;;;;;;;3.60;2.55;;;;;;;6.70;100.00;99665.69;6240809;23;20028;-72
2023/03/24 03:14:05;;;;;;;4.38;2.90;;;;;;;6.70;100.00;99663.03;6214675;23;20047;-72
2023/03/24 03:16:45;;;;;;;8.10;3.05;;;;;;;6.69;100.00;99657.84;6240971;23;20031;-72
2023/03/24 03:19:19;;;;;;;3.75;2.38;;;;;;;6.71;100.00;99659.34;6240413;23;20020;-71
2023/03/24 03:21:49;;;;;;;4.50;2.47;;;;;;;6.71;100.00;99650.53;6240813;23;20036;-71
2023/03/24 03:24:25;;;;;;;3.60;2.38;;;;;;;6.71;100.00;99653.19;6238872;23;20070;-72
2023/03/24 03:27:01;;;;;;;6.03;2.70;;;;;;;6.81;100.00;99647.75;6239055;23;20031;-71
2023/03/24 03:29:34;;;;;;;6.38;2.50;;;;;;;6.77;100.00;99638.38;6239707;22;20059;-71
2023/03/24 03:32:06;;;;;;;6.85;2.95;;;;;;;6.76;100.00;99640.22;6241193;23;20028;-71
2023/03/24 03:34:45;;;;;;;4.30;2.40;;;;;;;6.82;100.00;99636.06;6240885;23;20028;-72
2023/03/24 03:37:26;;;;;;;4.70;2.67;;;;;;;6.80;100.00;99630.88;6239894;23;20301;-72
2023/03/24 03:40:01;;;;;;;5.27;3.10;;;;;;;6.84;100.00;99629.59;6239500;23;20023;-71
2023/03/24 03:42:28;;;;;;;4.38;2.70;;;;;;;6.87;100.00;99628.41;6240144;23;20020;-72
2023/03/24 03:44:54;;;;;;;7.40;3.35;;;;;;;6.81;100.00;99619.25;6241055;23;20020;-72
2023/03/24 03:47:21;;;;;;;7.32;2.90;;;;;;;6.74;100.00;99612.03;6240127;23;20030;-72
2023/03/24 03:49:50;;;;;;;7.18;2.92;;;;;;;6.78;100.00;99608.06;6229135;23;20098;-72
2023/03/24 03:52:17;;;;;;;6.85;3.20;;;;;;;6.75;100.00;99606.56;6240535;23;20027;-72
2023/03/24 03:54:44;;;;;;;4.75;3.08;;;;;;;6.77;100.00;99603.72;6240180;23;20099;-72
2023/03/24 03:57:13;;;;;;;6.93;3.05;;;;;;;6.80;100.00;99606.06;6240110;23;20024;-72
2023/03/24 03:59:40;;;;;;;7.75;3.22;;;;;;;6.83;100.00;99597.75;6239853;23;20182;-73
2023/03/24 04:02:28;;;;;;;6.53;3.22;;;;;;;6.88;100.00;99595.44;6238219;23;20024;-71
2023/03/24 04:05:25;;;;;;;8.43;3.63;;;;;;;6.82;100.00;99588.09;6206728;23;20012;-71
2023/03/24 04:08:02;;;;;;;7.88;3.80;;;;;;;6.86;100.00;99586.75;6228821;23;20012;-72
2023/03/24 04:10:47;;;;;;;7.43;3.85;;;;;;;6.88;100.00;99579.44;6240351;23;20039;-72
2023/03/24 04:13:20;;;;;;;7.07;4.00;;;;;;;6.90;100.00;99572.09;6241016;23;20027;-72
2023/03/24 04:15:55;;;;;;;7.65;3.75;;;;;;;6.86;100.00;99576.09;6240223;23;20437;-71
2023/03/24 04:18:30;;;;;;;7.47;3.92;;;;;;;6.87;100.00;99573.25;6240177;23;20048;-72
2023/03/24 04:21:06;;;;;;;9.60;4.07;;;;;;;6.88;100.00;99561.59;6240271;23;20510;-72
2023/03/24 04:23:45;;;;;;;5.90;3.70;;;;;;;6.92;100.00;99570.09;6239391;23;20388;-71
2023/03/24 04:26:25;;;;;;;6.22;4.18;;;;;;;6.92;100.00;99567.44;6239302;23;20102;-72
2023/03/24 04:29:16;;;;;;;11.75;4.28;;;;;;;6.94;100.00;99558.28;6239748;22;20095;-72
2023/03/24 04:31:52;;;;;;;11.65;4.88;;;;;;;6.95;100.00;99554.63;6240599;23;20020;-71
2023/03/24 04:34:24;;;;;;;5.38;4.00;;;;;;;6.97;100.00;99557.09;6240596;23;20095;-71
2023/03/24 04:37:02;;;;;;;7.32;4.07;;;;;;;6.95;100.00;99545.78;6242715;23;20020;-72
2023/03/24 04:39:34;;;;;;;6.05;4.15;;;;;;;6.96;100.00;99544.78;6242666;23;20023;-72
2023/03/24 04:42:03;;;;;;;;;;;;;;;7.02;100.00;99544.13;6243094;23;20026;-71
2023/03/24 04:44:31;;;;;;;7.93;4.35;;;;;;;7.01;100.00;99547.75;6243294;23;20220;-72
2023/03/24 04:47:01;;;;;;;6.32;4.30;;;;;;;7.05;100.00;99540.25;6241436;23;20356;-71
2023/03/24 04:49:28;;;;;;;7.53;4.63;;;;;;;7.03;100.00;99532.44;6242783;23;20424;-73
2023/03/24 04:51:55;;;;;;;7.80;4.70;;;;;;;7.11;100.00;99532.44;6243156;23;20373;-72
2023/03/24 04:54:22;;;;;;;5.35;4.00;;;;;;;7.18;100.00;99532.59;6227668;23;20020;-73
2023/03/24 04:56:51;;;;;;;9.07;4.68;;;;;;;7.19;100.00;99523.63;6240587;23;20024;-73
2023/03/24 04:59:18;;;;;;;8.15;4.38;;;;;;;7.18;100.00;99529.94;6241919;23;20346;-73
2023/03/24 05:01:51;;;;;;;7.43;4.10;;;;;;;7.16;100.00;99524.78;6241711;23;20031;-73
2023/03/24 05:04:20;;;;;;;8.80;5.25;;;;;;;7.16;100.00;99521.28;6215319;23;20020;-72
2023/03/24 05:06:50;;;;;;;5.00;3.83;;;;;;;7.18;100.00;99522.75;6241304;23;20028;-72
2023/03/24 05:09:20;;;;;;;9.27;4.88;;;;;;;7.22;100.00;99517.94;6241748;23;20099;-72
2023/03/24 05:11:47;;;;;;;10.18;4.82;;;;;;;7.22;100.00;99509.91;6241256;23;20027;-71
2023/03/24 05:14:14;;;;;;;6.47;4.47;;;;;;;7.28;100.00;99508.44;6241668;23;20691;-73
2023/03/24 05:16:41;;;;;;;9.60;4.80;;;;;;;7.30;100.00;99517.94;6239825;23;20306;-73
2023/03/24 05:19:08;;;;;;;5.80;4.43;;;;;;;7.30;100.00;99514.44;6241344;23;20050;-71
2023/03/24 05:21:34;;;;;;;5.88;4.82;;;;;;;7.35;100.00;99512.09;6240678;23;20101;-71
2023/03/24 05:24:01;;;;;;;7.80;4.82;;;;;;;7.33;100.00;99511.44;6241787;23;20024;-72
2023/03/24 05:26:28;;;;;;;7.75;4.35;;;;;;;7.32;100.00;99513.25;6242084;23;20024;-72
2023/03/24 05:28:58;;;;;;;9.15;5.15;;;;;;;7.37;100.00;99510.09;6241123;22;20098;-71
2023/03/24 05:31:24;;;;;;;7.50;5.05;;;;;;;7.35;100.00;99512.09;6242319;23;20028;-73
2023/03/24 05:33:51;;;;;;;9.27;4.50;;;;;;;7.34;100.00;99505.09;6241521;23;20026;-72
2023/03/24 05:36:17;;;;;;;9.23;4.97;;;;;;;7.36;100.00;99519.06;6241522;23;20054;-71
2023/03/24 05:38:44;;;;;;;7.78;4.57;;;;;;;7.38;100.00;99522.44;6240057;23;20028;-72
2023/03/24 05:41:11;;;;;;;7.25;4.72;;;;;;;7.42;100.00;99513.06;6241715;23;20016;-71
2023/03/24 05:43:37;;;;;;;7.05;4.80;;;;;;;7.38;100.00;99511.75;6241259;23;20042;-72
2023/03/24 05:46:04;;;;;;;9.50;5.10;;;;;;;7.36;100.00;99503.06;6240755;23;20024;-71
2023/03/24 05:48:30;;;;;;;9.85;4.80;;;;;;;7.38;100.00;99501.06;6241054;23;20023;-71
2023/03/24 05:50:57;;;;;;;6.82;5.20;;;;;;;7.39;100.00;99498.22;6240693;23;20022;-71
2023/03/24 05:53:24;;;;;;;7.68;5.22;;;;;;;7.43;100.00;99498.75;6242667;23;20085;-72
2023/03/24 05:55:52;;;;;;;10.18;4.78;;;;;;;7.38;100.00;99501.06;6215527;23;20025;-72
2023/03/24 05:58:20;;;;;;;7.47;4.50;;;;;;;7.38;100.00;99501.06;6228063;23;20032;-72
2023/03/24 06:00:46;;;;;;;7.97;4.38;;;;;;;7.45;100.00;99486.06;6241466;23;20020;-71
2023/03/24 06:03:15;;;;;;;8.98;4.40;;;;;;;7.47;100.00;99497.41;6241598;23;20028;-71
2023/03/24 06:05:44;;;;;;;8.85;4.32;;;;;;;7.50;100.00;99491.72;6197206;23;20029;-71
2023/03/24 06:08:11;;;;;;;5.72;4.18;;;;;;;7.52;100.00;99487.03;6237631;23;20027;-71
2023/03/24 06:10:39;;;;;;;6.78;4.30;;;;;;;7.51;100.00;99485.38;6238946;23;20030;-74
2023/03/24 06:13:07;;;;;;;5.40;3.97;;;;;;;7.54;100.00;99477.03;6241348;23;20055;-73
2023/03/24 06:15:35;;;;;;;6.78;4.53;;;;;;;7.51;100.00;99485.38;6240965;23;20327;-74
2023/03/24 06:18:04;;;;;;;5.43;4.03;;;;;;;7.53;100.00;99483.34;6239808;23;20012;-73
2023/03/24 06:20:31;;;;;;;7.22;4.53;;;;;;;7.54;100.00;99471.69;6241525;23;20567;-73
2023/03/24 06:22:58;;;;;;;7.93;4.50;;;;;;;7.58;100.00;99465.00;6241681;23;20190;-74
2023/03/24 06:25:27;;;;;;;8.85;4.30;;;;;;;7.66;100.00;99467.63;6239767;23;20020;-74
2023/03/24 06:27:54;;;;;;;6.35;3.80;;;;;;;7.70;100.00;99460.13;6241278;22;20016;-73
2023/03/24 06:30:20;;;;;;;8.48;4.55;;;;;;;7.72;100.00;99457.28;6210233;23;20028;-73
2023/03/24 06:32:47;;;;;;;9.38;4.50;;;;;;;7.78;100.00;99456.63;6188038;23;20040;-74
2023/03/24 06:35:15;;;;;;;9.70;3.90;;;;;;;7.83;100.00;99457.75;6180661;23;20025;-73
2023/03/24 06:37:43;;;;;;;11.00;5.47;;;;;;;7.85;100.00;99450.44;6180620;23;20354;-75
2023/03/24 06:40:14;;;;;;;8.05;4.95;;;;;;;7.95;100.00;99460.03;6180543;23;20028;-74
2023/03/24 06:42:41;;;;;;;8.13;3.90;;;;;;;7.96;100.00;99454.56;6179330;23;20041;-75
2023/03/24 06:45:08;;;;;;;8.85;4.35;;;;;;;8.01;100.00;99449.50;6180740;23;20256;-75
2023/03/24 06:47:35;;;;;;;9.70;4.88;;;;;;;8.01;100.00;99446.00;6178839;23;20095;-76
2023/03/24 06:50:09;;;;;;;13.52;5.53;;;;;;;7.99;100.00;99454.22;6180455;23;20021;-73
2023/03/24 06:52:36;;;;;;;7.82;4.13;;;;;;;8.09;100.00;99446.81;6169332;23;20522;-73
2023/03/24 06:55:04;;;;;;;6.88;4.78;;;;;;;8.16;100.00;99448.75;6180837;23;20031;-72
2023/03/24 06:57:31;;;;;;;6.43;4.50;;;;;;;8.14;100.00;99447.09;6180772;23;20031;-72
2023/03/24 06:59:57;;;;;;;5.75;4.10;;;;;;;8.09;100.00;99446.81;6181578;23;20021;-73
2023/03/24 07:02:24;;;;;;;6.97;4.45;;;;;;;8.13;100.00;99442.78;6179832;23;20025;-73
2023/03/24 07:05:03;;;;;;;7.75;4.38;;;;;;;8.10;100.00;99437.78;6180480;23;20391;-73
2023/03/24 07:07:36;;;;;;;7.65;4.13;;;;;;;8.17;100.00;99437.09;6177853;23;20092;-73
2023/03/24 07:10:22;;;;;;;6.90;4.47;;;;;;;8.26;100.00;99433.34;6179562;23;20032;-73
2023/03/24 07:12:49;;;;;;;7.18;4.10;;;;;;;8.29;100.00;99428.47;6181243;23;20012;-74
2023/03/24 07:15:16;;;;;;;8.27;4.03;;;;;;;8.29;100.00;99430.31;6180201;23;20366;-73
2023/03/24 07:17:42;;;;;;;10.70;4.20;;;;;;;8.24;100.00;99414.81;6168091;23;20028;-74
2023/03/24 07:20:09;;;;;;;8.20;3.88;;;;;;;8.32;100.00;99414.75;6199972;23;20040;-72
2023/03/24 07:22:35;;;;;;;8.52;4.13;;;;;;;8.42;100.00;99414.53;6208635;23;20048;-72
2023/03/24 07:25:03;;;;;;;6.72;3.90;;;;;;;8.50;100.00;99410.97;6207939;23;20027;-72
2023/03/24 07:27:33;;;;;;;6.60;3.65;;;;;;;8.64;100.00;99410.16;6204955;23;20021;-70
2023/03/24 07:30:01;;;;;;;8.18;3.67;;;;;;;8.90;100.00;99409.78;6206299;23;20045;-72
2023/03/24 07:32:33;;;;;;;6.53;3.65;;;;;;;9.16;100.00;99419.22;6265385;23;20012;-71
2023/03/24 07:35:01;;;;;;;6.75;3.55;;;;;;;9.30;100.00;99407.72;6264638;23;20024;-72
2023/03/24 07:37:28;;;;;;;10.90;3.33;;;;;;;9.23;100.00;99404.09;6268800;22;20012;-72
2023/03/24 07:39:54;;;;;;;7.72;3.90;;;;;;;9.05;100.00;99405.28;6267438;22;20077;-70
2023/03/24 07:42:21;;;;;;;6.35;3.17;;;;;;;9.00;100.00;99402.34;6267593;22;20080;-71
2023/03/24 07:44:48;;;;;;;7.68;3.60;;;;;;;8.92;100.00;99409.59;6267692;22;20024;-71
2023/03/24 07:47:14;;;;;;;8.27;3.78;;;;;;;9.03;100.00;99418.03;6266820;23;20068;-71
2023/03/24 07:49:41;;;;;;;8.07;3.63;;;;;;;8.90;100.00;99401.78;6267546;22;20018;-71
2023/03/24 07:52:08;;;;;;;6.38;3.70;;;;;;;8.85;100.00;99415.69;6267740;22;20027;-71
2023/03/24 07:54:34;;;;;;;9.95;4.63;;;;;;;8.74;100.00;99412.59;6265887;22;20031;-72
2023/03/24 07:57:01;;;;;;;8.93;4.30;;;;;;;8.75;100.00;99419.63;6265324;23;20031;-71
2023/03/24 07:59:28;;;;;;;6.10;4.22;;;;;;;8.68;100.00;99414.16;6264713;23;20030;-71
2023/03/24 08:01:55;;;;;;;8.07;4.40;;;;;;;8.61;100.00;99406.03;6265183;23;20012;-71
2023/03/24 08:04:28;;;;;;;6.70;3.38;;;;;;;8.63;100.00;99410.38;6265529;23;20031;-70
2023/03/24 08:06:54;;;;;;;7.32;3.75;;;;;;;8.59;100.00;99405.38;6246392;23;20010;-72
2023/03/24 08:09:22;;;;;;;6.90;3.75;;;;;;;8.50;100.00;99395.75;6229943;22;20025;-71
2023/03/24 08:11:49;;;;;;;5.82;4.25;;;;;;;8.46;100.00;99399.78;6266392;22;20075;-71
2023/03/24 08:14:16;;;;;;;8.65;4.10;;;;;;;8.46;100.00;99396.28;6266661;23;20061;-71
2023/03/24 08:16:45;;;;;;;9.63;4.18;;;;;;;8.45;100.00;99394.63;6248215;23;20031;-72
2023/03/24 08:19:12;;;;;;;8.68;4.10;;;;;;;8.44;100.00;99401.84;6264546;23;20008;-71
2023/03/24 08:21:38;;;;;;;12.23;4.45;;;;;;;8.40;100.00;99395.19;6264536;23;20021;-71
2023/03/24 08:24:05;;;;;;;7.90;4.70;;;;;;;8.42;100.00;99403.84;6266213;23;20063;-72
2023/03/24 08:26:34;;;;;;;6.30;4.30;;;;;;;8.35;100.00;99401.03;6266685;22;20061;-72
2023/03/24 08:29:01;;;;;;;7.70;4.70;;;;;;;8.40;100.00;99397.84;6268639;22;20050;-72
2023/03/24 08:31:35;;;;;;;7.57;4.13;;;;;;;8.37;100.00;99388.34;6268310;22;20058;-72
2023/03/24 08:34:05;;;;;;;11.30;4.47;;;;;;;8.33;100.00;99405.75;6266946;22;20039;-72
2023/03/24 08:36:32;;;;;;;13.85;4.47;;;;;;;8.33;100.00;99389.72;6265782;22;20019;-71
2023/03/24 08:39:00;;;;;;;12.35;5.13;;;;;;;8.41;100.00;99380.81;6261892;22;20063;-72
2023/03/24 08:41:33;;;;;;;8.75;4.28;;;;;;;8.38;100.00;99386.50;6265368;22;20024;-71
2023/03/24 08:44:03;;;;;;;7.40;4.60;;;;;;;8.38;100.00;99410.56;6267980;22;20030;-72
2023/03/24 08:46:33;;;;;;;14.38;4.25;;;;;;;8.37;100.00;99400.88;6265290;23;20047;-71
2023/03/24 08:49:01;;;;;;;9.80;5.22;;;;;;;8.40;100.00;99389.84;6268312;23;20015;-72
2023/03/24 08:51:28;;;;;;;6.53;4.45;;;;;;;8.42;100.00;99393.16;6241979;23;20079;-72
2023/03/24 08:53:55;;;;;;;17.40;4.53;;;;;;;8.50;100.00;99395.75;6267151;22;20023;-71
2023/03/24 08:56:22;;;;;;;7.47;4.70;;;;;;;8.61;100.00;99395.34;6253564;22;20012;-72
2023/03/24 08:58:52;;;;;;;11.05;5.35;;;;;;;8.67;100.00;99401.78;6267664;22;20027;-72
2023/03/24 09:01:22;;;;;;;6.50;4.55;;;;;;;8.57;100.00;99401.22;6228422;23;20044;-72
2023/03/24 09:03:48;;;;;;;9.75;5.55;;;;;;;8.69;100.00;99404.31;6268426;22;20036;-72
2023/03/24 09:06:16;;;;;;;14.95;9.13;;;;;;;8.81;100.00;99410.88;6267981;22;20016;-72
2023/03/24 09:08:42;;;;;;;18.52;12.05;;;;;;;8.80;100.00;99410.03;6267515;22;20008;-72
2023/03/24 09:11:17;;;;;;;26.02;10.07;;;;;;;8.83;100.00;99420.38;6266772;23;20012;-72
2023/03/24 09:13:44;;;;;;;16.50;9.73;;;;;;;8.76;100.00;99414.09;6267353;23;20035;-72
2023/03/24 09:16:11;;;;;;;18.50;9.32;;;;;;;8.79;100.00;99418.25;6252007;22;20012;-72
2023/03/24 09:18:38;;;;;;;23.40;10.75;;;;;;;8.80;100.00;99423.41;6268794;23;20020;-72
2023/03/24 09:21:06;;;;;;;12.32;8.57;;;;;;;8.74;100.00;99425.97;6269441;22;20024;-71
2023/03/24 09:23:33;;;;;;;11.65;6.10;;;;;;;8.78;100.00;99421.91;6271035;22;20008;-71
2023/03/24 09:26:01;;;;;;;8.10;5.20;;;;;;;8.84;100.00;99423.88;6270070;22;20038;-71
2023/03/24 09:28:28;;;;;;;16.35;5.50;;;;;;;8.82;100.00;99428.59;6267777;22;20024;-72
2023/03/24 09:31:02;;;;;;;8.20;4.30;;;;;;;8.90;100.00;99433.03;6242780;23;20039;-71
2023/03/24 09:33:29;;;;;;;12.00;5.78;;;;;;;9.00;100.00;99434.44;6214928;23;20013;-72
2023/03/24 09:35:59;;;;;;;8.75;4.50;;;;;;;9.17;100.00;99436.97;6209063;23;20025;-71
2023/03/24 09:38:30;;;;;;;10.07;4.57;;;;;;;9.59;100.00;99431.00;6207837;23;20025;-72
2023/03/24 09:41:01;;;;;;;15.23;5.13;;;;;;;9.96;100.00;99432.72;6208520;23;20025;-71
2023/03/24 09:43:50;;;;;;;16.75;5.78;;;;;;;10.37;100.00;99431.31;6207149;23;20009;-71
2023/03/24 09:46:30;;;;;;;16.00;5.75;;;;;;;10.43;100.00;99435.91;6206312;23;20025;-72
2023/03/24 09:48:57;;;;;;;7.68;3.88;;;;;;;10.44;100.00;99437.56;6187876;23;20025;-71
2023/03/24 09:51:28;;;;;;;8.18;4.53;;;;;;;10.58;100.00;99438.56;6206900;23;20020;-71
2023/03/24 09:54:13;;;;;;;8.25;4.72;;;;;;;10.61;100.00;99430.97;6201261;23;20056;-72
2023/03/24 09:56:43;;;;;;;13.85;6.45;;;;;;;10.55;100.00;99439.78;6207038;23;20427;-71
2023/03/24 09:59:16;;;;;;;26.35;16.15;;;;;;;10.84;100.00;99444.19;6208032;23;20013;-72
2023/03/24 10:18:17;;;;;;;11.13;6.60;;;;;;;10.47;100.00;99443.38;6174794;22;20090;-76
2023/03/24 10:20:53;;;;;;;12.63;6.32;;;;;;;10.36;100.00;99457.28;6241660;23;20449;-76
2023/03/24 10:23:35;;;;;;;16.52;11.38;;;;;;;10.36;100.00;99451.09;6241965;23;20024;-76
2023/03/24 10:26:16;;;;;;;17.35;10.40;;;;;;;10.19;100.00;99450.50;6226734;23;20086;-76
2023/03/24 10:29:09;;;;;;;24.08;15.07;;;;;;;10.34;100.00;99447.78;6222021;23;20021;-76
2023/03/24 10:31:37;;;;;;;13.07;6.90;;;;;;;10.53;100.00;99443.69;6210616;23;20023;-75
2023/03/24 10:34:08;;;;;;;49.85;22.55;;;;;;;10.94;100.00;99439.31;6211245;23;20017;-76
2023/03/24 10:36:37;;;;;;;23.87;6.33;;;;;;;11.19;100.00;99444.25;6210579;23;20017;-75
2023/03/24 10:39:04;;;;;;;11.95;3.78;;;;;;;11.72;100.00;99449.97;6205764;23;20096;-76
2023/03/24 10:41:47;;;;;;;10.43;3.70;;;;;;;12.05;100.00;99452.00;6210665;23;20021;-76
2023/03/24 10:44:14;;;;;;;3.97;2.67;;;;;;;11.83;100.00;99452.13;6209580;23;20067;-75
2023/03/24 10:46:53;;;;;;;9.43;3.63;;;;;;;11.95;100.00;99456.91;6208373;23;20406;-75
2023/03/24 10:49:22;;;;;;;6.57;3.67;;;;;;;11.84;100.00;99447.56;6210947;23;20056;-75
2023/03/24 10:51:51;;;;;;;11.80;5.40;;;;;;;11.69;100.00;99442.34;6210485;23;20026;-76
2023/03/24 10:54:21;;;;;;;5.07;2.80;;;;;;;11.45;100.00;99455.19;6213261;23;20353;-76
2023/03/24 11:27:27;;;;;;;3.90;2.00;;;;;;;13.57;100.00;99454.84;6206643;22;21016;31
